Time;durP1;ratioP1;P1;durP2;ratioP2;P2;SDS_P1;SDS_P2;PMS_P1;PMS_P2;Temp;Humidity;BMP_temperature;BMP_pressure;BME280_temperature;BME280_humidity;BME280_pressure;Samples;Min_cycle;Max_cycle;Signal;HPM_P1;HPM_P2
2022/08/22 00:00:12;;;;;;;;;8.80;8.80;;;;;17.79;56.88;99882.06;5095594;28;8849;-62
2022/08/22 00:02:40;;;;;;;;;6.00;6.00;;;;;17.78;56.99;99884.91;5095302;28;8980;-62
2022/08/22 00:05:27;;;;;;;;;6.00;4.40;;;;;17.75;56.93;99878.00;5095042;28;8926;-62
2022/08/22 00:07:55;;;;;;;;;6.00;6.00;;;;;17.74;56.59;99883.56;5094828;28;8851;-63
2022/08/22 00:10:25;;;;;;;;;7.80;7.80;;;;;17.71;56.64;99879.38;5095226;28;8833;-62
2022/08/22 00:12:53;;;;;;;;;6.00;6.00;;;;;17.67;56.80;99883.41;5083860;28;8797;-64
2022/08/22 00:15:20;;;;;;;;;8.20;7.00;;;;;17.63;56.80;99873.94;5074149;28;8966;-62
2022/08/22 00:18:08;;;;;;;;;9.40;9.20;;;;;17.60;56.62;99877.00;5076197;28;8844;-62
2022/08/22 00:20:36;;;;;;;;;7.00;7.00;;;;;17.56;57.08;99877.50;5078707;28;8866;-62
2022/08/22 00:23:04;;;;;;;;;8.20;8.20;;;;;17.51;57.49;99878.00;5079121;28;8844;-63
2022/08/22 00:25:31;;;;;;;;;6.60;6.60;;;;;17.43;57.53;99880.69;5078809;28;8832;-62
2022/08/22 00:27:59;;;;;;;;;7.80;7.80;;;;;17.37;57.29;99881.34;5079393;28;8966;-62
2022/08/22 00:30:29;;;;;;;;;7.00;7.00;;;;;17.31;57.69;99889.22;5098149;28;9852;-62
2022/08/22 00:32:56;;;;;;;;;3.00;3.00;;;;;17.24;57.76;99883.66;5098899;28;8850;-62
2022/08/22 00:35:24;;;;;;;;;7.80;7.40;;;;;17.18;58.18;99878.94;5098587;28;8830;-62
2022/08/22 00:37:52;;;;;;;;;5.80;4.40;;;;;17.10;58.06;99888.84;5098993;28;8822;-62
2022/08/22 00:40:20;;;;;;;;;8.00;7.00;;;;;17.00;58.04;99888.97;5098995;28;8842;-62
2022/08/22 00:42:48;;;;;;;;;6.00;6.00;;;;;16.92;57.94;99880.88;5099070;28;8837;-63
2022/08/22 00:45:15;;;;;;;;;4.00;4.00;;;;;16.87;58.82;99879.69;5098818;28;8838;-62
2022/08/22 00:47:43;;;;;;;;;6.40;6.40;;;;;16.83;58.94;99886.41;5098726;28;8962;-62
2022/08/22 00:50:11;;;;;;;;;12.25;9.00;;;;;16.78;58.98;99884.19;5098320;28;8830;-62
2022/08/22 00:52:39;;;;;;;;;7.75;7.75;;;;;16.73;59.03;99874.94;5099111;28;8968;-62
2022/08/22 00:55:07;;;;;;;;;7.00;7.00;;;;;16.70;59.21;99892.25;5098576;28;8937;-62
2022/08/22 00:57:34;;;;;;;;;6.75;6.25;;;;;16.66;59.15;99888.19;5098677;28;8826;-63
2022/08/22 01:00:04;;;;;;;;;7.00;6.00;;;;;16.63;58.81;99885.81;5080700;28;8812;-64
2022/08/22 01:02:32;;;;;;;;;10.00;7.50;;;;;16.60;58.88;99879.91;5077959;28;8852;-62
2022/08/22 01:04:59;;;;;;;;;7.00;7.00;;;;;16.56;59.74;99883.97;5077574;28;8820;-62
2022/08/22 01:07:27;;;;;;;;;9.50;9.25;;;;;16.50;59.59;99880.03;5077913;28;8832;-62
2022/08/22 01:10:07;;;;;;;;;6.75;6.00;;;;;16.45;59.23;99876.16;5077749;28;8832;-64
2022/08/22 01:12:34;;;;;;;;;7.00;7.00;;;;;16.40;59.87;99876.63;5078184;28;8840;-62
2022/08/22 01:15:02;;;;;;;;;11.50;9.75;;;;;16.38;59.65;99879.66;5078023;28;8844;-62
2022/08/22 01:17:30;;;;;;;;;9.00;7.50;;;;;16.32;59.31;99875.75;5078099;28;8850;-62
2022/08/22 01:19:58;;;;;;;;;9.75;8.75;;;;;16.31;59.48;99874.03;5077796;28;8852;-62
2022/08/22 01:22:26;;;;;;;;;10.00;9.25;;;;;16.32;59.89;99881.13;5078080;28;8832;-62
2022/08/22 01:27:40;;;;;;;;;9.00;8.50;;;;;16.28;59.57;99888.66;5077832;28;8852;-61
2022/08/22 01:30:08;;;;;;;;;10.00;9.00;;;;;16.23;59.67;99890.13;5093147;28;8884;-62
2022/08/22 01:32:36;;;;;;;;;9.50;9.50;;;;;16.17;60.10;99878.16;5097937;28;8889;-62
2022/08/22 01:35:04;;;;;;;;;12.25;9.00;;;;;16.12;59.69;99876.97;5097994;28;8856;-63
2022/08/22 01:37:32;;;;;;;;;8.00;7.00;;;;;16.08;59.73;99872.88;5097788;28;9515;-62
2022/08/22 01:40:11;;;;;;;;;9.75;9.00;;;;;16.04;59.96;99882.28;5097612;28;8860;-62
2022/08/22 01:42:39;;;;;;;;;12.00;9.25;;;;;16.05;59.94;99870.53;5097852;28;8891;-63
2022/08/22 01:45:06;;;;;;;;;11.00;9.75;;;;;16.06;59.82;99874.91;5097245;28;9511;-62
2022/08/22 01:47:34;;;;;;;;;6.50;6.50;;;;;16.07;60.46;99873.88;5097490;28;8826;-62
2022/08/22 01:50:04;;;;;;;;;10.00;10.00;;;;;16.08;60.39;99877.44;5097916;28;8968;-61
2022/08/22 01:52:31;;;;;;;;;7.00;6.50;;;;;16.07;60.39;99867.69;5097333;28;8825;-63
2022/08/22 01:54:59;;;;;;;;;9.25;8.00;;;;;16.02;60.42;99872.69;5097063;28;8879;-62
2022/08/22 01:57:27;;;;;;;;;8.50;7.00;;;;;15.97;60.60;99872.31;5097171;28;8850;-62
2022/08/22 01:59:55;;;;;;;;;7.00;7.00;;;;;15.90;59.99;99869.41;5076639;28;8830;-62
2022/08/22 02:02:23;;;;;;;;;8.50;8.50;;;;;15.83;60.60;99872.88;5076616;28;8929;-62
2022/08/22 02:04:51;;;;;;;;;6.50;6.50;;;;;15.78;60.88;99875.22;5076727;28;8836;-61
2022/08/22 02:07:18;;;;;;;;;8.50;7.50;;;;;15.74;60.77;99880.03;5076991;28;8836;-62
2022/08/22 02:09:50;;;;;;;;;6.00;6.00;;;;;15.71;61.18;99874.16;5077075;28;8855;-62
2022/08/22 02:12:18;;;;;;;;;8.00;8.00;;;;;15.69;60.78;99878.84;5076976;28;8930;-63
2022/08/22 02:14:48;;;;;;;;;7.50;7.00;;;;;15.66;60.76;99877.31;5076289;28;8856;-62
2022/08/22 02:17:16;;;;;;;;;6.75;6.25;;;;;15.67;61.14;99884.34;5077444;28;8939;-62
2022/08/22 02:19:43;;;;;;;;;9.50;9.00;;;;;15.67;60.75;99887.03;5076711;28;8824;-62
2022/08/22 02:22:11;;;;;;;;;12.00;9.50;;;;;15.69;61.06;99876.16;5075473;28;8935;-63
2022/08/22 02:24:39;;;;;;;;;10.50;9.00;;;;;15.70;60.90;99872.47;5076621;28;8824;-62
2022/08/22 02:27:07;;;;;;;;;9.00;7.50;;;;;15.71;60.79;99866.91;5076958;28;8840;-62
2022/08/22 02:29:35;;;;;;;;;7.25;6.25;;;;;15.73;60.89;99864.94;5091940;28;8814;-62
2022/08/22 02:32:02;;;;;;;;;10.50;9.50;;;;;15.79;60.97;99860.78;5096759;28;8916;-62
2022/08/22 02:34:31;;;;;;;;;6.25;4.00;;;;;15.83;60.54;99856.75;5096555;28;8960;-62
2022/08/22 02:36:58;;;;;;;;;9.50;6.75;;;;;15.82;60.71;99861.31;5096447;28;8927;-62
2022/08/22 02:39:26;;;;;;;;;6.00;6.00;;;;;15.78;60.93;99859.09;5096469;28;8830;-62
2022/08/22 02:41:54;;;;;;;;;9.00;9.00;;;;;15.73;61.02;99862.25;5095597;28;8860;-62
2022/08/22 02:44:22;;;;;;;;;5.00;5.00;;;;;15.68;60.94;99859.19;5095798;28;8826;-62
2022/08/22 02:46:50;;;;;;;;;6.00;5.00;;;;;15.65;60.88;99859.50;5095739;28;8822;-62
2022/08/22 02:49:18;;;;;;;;;7.50;7.00;;;;;15.63;60.94;99861.50;5095800;28;8968;-62
2022/08/22 02:51:45;;;;;;;;;7.00;7.00;;;;;15.63;61.22;99866.03;5096184;28;8962;-62
2022/08/22 02:54:15;;;;;;;;;8.00;5.50;;;;;15.61;61.32;99858.13;5096117;28;8860;-62
2022/08/22 02:56:43;;;;;;;;;8.00;8.00;;;;;15.59;61.56;99857.44;5096459;28;8989;-62
2022/08/22 02:59:12;;;;;;;;;5.00;5.00;;;;;15.59;60.71;99870.88;5082590;28;8956;-62
2022/08/22 03:01:40;;;;;;;;;9.00;9.00;;;;;15.59;61.39;99870.00;5075541;28;8844;-62
2022/08/22 03:04:08;;;;;;;;;7.50;7.50;;;;;15.57;61.56;99863.97;5075662;28;8816;-62
2022/08/22 03:06:35;;;;;;;;;7.00;4.00;;;;;15.55;61.22;99857.91;5075717;28;8808;-62
2022/08/22 03:09:04;;;;;;;;;5.50;5.00;;;;;15.53;61.73;99855.38;5081313;28;8836;-62
2022/08/22 03:11:32;;;;;;;;;6.00;6.00;;;;;15.49;61.24;99856.66;5095916;28;8973;-62
2022/08/22 03:14:00;;;;;;;;;7.00;7.00;;;;;15.47;61.20;99852.47;5095417;28;8868;-63
2022/08/22 03:16:28;;;;;;;;;7.00;7.00;;;;;15.45;62.02;99849.09;5095941;28;8845;-62
2022/08/22 03:18:56;;;;;;;;;6.25;6.25;;;;;15.42;61.84;99846.72;5096180;28;8838;-63
2022/08/22 03:21:23;;;;;;;;;7.00;6.50;;;;;15.40;61.98;99849.56;5095480;28;8907;-63
2022/08/22 03:23:51;;;;;;;;;9.00;7.00;;;;;15.38;61.46;99845.34;5095538;28;8842;-62
2022/08/22 03:26:19;;;;;;;;;8.50;6.75;;;;;15.37;61.74;99847.19;5095547;28;8980;-62
2022/08/22 03:28:47;;;;;;;;;9.00;7.50;;;;;15.34;62.13;99842.16;5083092;28;8824;-62
2022/08/22 03:31:26;;;;;;;;;7.00;7.00;;;;;15.27;61.92;99837.50;5074912;28;8832;-63
2022/08/22 03:33:54;;;;;;;;;6.00;6.00;;;;;15.21;61.92;99838.09;5089428;28;8833;-62
2022/08/22 03:36:21;;;;;;;;;6.50;6.25;;;;;15.14;62.47;99847.75;5094214;28;8839;-61
2022/08/22 03:38:50;;;;;;;;;8.00;8.00;;;;;15.09;62.37;99847.41;5094341;28;9781;-62
2022/08/22 03:41:18;;;;;;;;;6.00;6.00;;;;;15.03;62.85;99846.16;5094167;28;8826;-63
2022/08/22 03:43:46;;;;;;;;;4.50;4.50;;;;;14.99;62.78;99843.94;5094875;28;8852;-62
2022/08/22 03:46:14;;;;;;;;;10.00;9.25;;;;;14.94;63.05;99840.88;5094200;28;8829;-63
2022/08/22 03:48:45;;;;;;;;;7.00;7.00;;;;;14.90;62.84;99840.34;5094057;28;8858;-62
2022/08/22 03:51:13;;;;;;;;;12.00;9.50;;;;;14.88;62.89;99846.84;5094964;28;8861;-62
2022/08/22 03:53:40;;;;;;;;;9.00;9.00;;;;;14.86;62.94;99846.16;5094674;28;8846;-62
2022/08/22 03:56:08;;;;;;;;;7.00;6.25;;;;;14.84;62.83;99840.06;5094971;28;8841;-62
2022/08/22 03:58:36;;;;;;;;;9.00;9.00;;;;;14.82;63.18;99837.56;5081513;28;8820;-61
2022/08/22 04:01:04;;;;;;;;;8.50;8.50;;;;;14.82;62.91;99847.44;5074908;28;9590;-62
2022/08/22 04:03:31;;;;;;;;;11.00;10.00;;;;;14.80;62.88;99850.25;5074563;28;8859;-62
2022/08/22 04:05:59;;;;;;;;;9.50;8.00;;;;;14.81;62.59;99851.13;5074698;28;8831;-62
2022/08/22 04:08:27;;;;;;;;;8.50;7.00;;;;;14.80;62.49;99847.59;5075044;28;9853;-63
2022/08/22 04:10:56;;;;;;;;;9.75;9.75;;;;;14.79;62.90;99853.13;5077899;28;8822;-62
2022/08/22 04:13:28;;;;;;;;;8.50;8.50;;;;;14.79;62.76;99853.13;5078707;28;9489;-63
2022/08/22 04:15:56;;;;;;;;;10.00;9.00;;;;;14.77;62.86;99844.34;5074962;28;8978;-65
2022/08/22 04:18:24;;;;;;;;;8.00;8.00;;;;;14.76;63.30;99848.91;5074443;28;8832;-62
2022/08/22 04:20:52;;;;;;;;;8.50;8.50;;;;;14.74;63.39;99840.16;5055890;28;8997;-62
2022/08/22 04:23:20;;;;;;;;;9.25;8.00;;;;;14.73;62.88;99841.13;5073281;28;8855;-63
2022/08/22 04:25:47;;;;;;;;;7.00;7.00;;;;;14.72;62.91;99841.31;5073967;28;8878;-62
2022/08/22 04:28:15;;;;;;;;;10.00;9.00;;;;;14.70;63.28;99848.63;5075106;28;8842;-62
2022/08/22 04:30:43;;;;;;;;;7.75;6.50;;;;;14.69;63.07;99846.94;5074110;28;8843;-63
2022/08/22 04:33:11;;;;;;;;;9.00;7.00;;;;;14.68;62.97;99845.28;5074641;28;8872;-62
2022/08/22 04:35:39;;;;;;;;;10.00;9.50;;;;;14.65;63.07;99841.03;5074340;28;8966;-62
2022/08/22 04:38:06;;;;;;;;;6.00;6.00;;;;;14.64;63.47;99841.22;5074821;28;9022;-62
2022/08/22 04:40:36;;;;;;;;;8.50;6.25;;;;;14.62;63.27;99843.19;5074436;28;8840;-63
2022/08/22 04:43:05;;;;;;;;;7.50;7.00;;;;;14.60;63.21;99843.34;5085326;28;8902;-62
2022/08/22 04:45:32;;;;;;;;;8.00;8.00;;;;;14.60;63.84;99847.84;5094503;28;8837;-63
2022/08/22 04:48:00;;;;;;;;;8.50;7.00;;;;;14.59;63.30;99846.16;5094652;28;8848;-63
2022/08/22 04:50:28;;;;;;;;;9.00;9.00;;;;;14.59;63.58;99851.53;5093686;28;8849;-63
2022/08/22 04:52:56;;;;;;;;;8.50;7.50;;;;;14.61;63.53;99844.19;5094034;28;8848;-62
2022/08/22 04:55:24;;;;;;;;;9.75;9.00;;;;;14.65;63.54;99848.25;5094099;28;8846;-63
2022/08/22 04:57:51;;;;;;;;;7.00;6.00;;;;;14.69;63.03;99852.31;5091642;28;8902;-62
2022/08/22 05:00:19;;;;;;;;;9.00;7.50;;;;;14.74;63.50;99853.56;5094273;28;8830;-61
2022/08/22 05:02:49;;;;;;;;;7.50;6.50;;;;;14.78;63.31;99856.75;5094732;28;8976;-61
2022/08/22 05:05:17;;;;;;;;;9.00;8.00;;;;;14.79;63.03;99847.75;5096261;28;8856;-62
2022/08/22 05:07:44;;;;;;;;;7.50;6.50;;;;;14.79;62.63;99847.75;5098588;28;9525;-62
2022/08/22 05:10:12;;;;;;;;;6.00;6.00;;;;;14.84;62.65;99853.50;5097900;28;9642;-61
2022/08/22 05:12:40;;;;;;;;;8.00;7.00;;;;;14.90;62.91;99856.44;5098402;28;8864;-62
2022/08/22 05:15:08;;;;;;;;;10.25;9.75;;;;;14.93;62.74;99860.63;5096532;28;8862;-62
2022/08/22 05:17:37;;;;;;;;;7.00;7.00;;;;;14.96;62.54;99861.16;5097755;28;8833;-62
2022/08/22 05:20:05;;;;;;;;;7.50;7.00;;;;;15.02;62.72;99860.56;5087676;28;8827;-62
2022/08/22 05:22:33;;;;;;;;;7.25;6.25;;;;;15.07;62.69;99857.41;5077644;28;8846;-63
2022/08/22 05:25:01;;;;;;;;;9.50;8.50;;;;;15.13;62.37;99863.03;5097181;28;8868;-63
2022/08/22 05:27:29;;;;;;;;;9.33;9.00;;;;;15.21;62.59;99859.56;5094407;28;8811;-63
2022/08/22 05:29:56;;;;;;;;;9.25;8.50;;;;;15.31;61.70;99865.72;5097373;28;8861;-62
2022/08/22 05:32:24;;;;;;;;;9.00;9.00;;;;;15.43;62.12;99860.00;5096919;28;8858;-62
2022/08/22 05:34:52;;;;;;;;;10.50;9.75;;;;;15.56;61.82;99864.97;5096948;28;8984;-63
2022/08/22 05:37:19;;;;;;;;;7.50;6.25;;;;;15.74;61.61;99863.94;5092497;28;8955;-62
2022/08/22 05:39:48;;;;;;;;;6.75;6.25;;;;;15.98;60.85;99863.25;5075740;28;8844;-63
2022/08/22 05:42:16;;;;;;;;;10.25;9.75;;;;;16.18;60.57;99858.34;5075631;28;8848;-62
2022/08/22 05:44:43;;;;;;;;;6.50;6.50;;;;;16.39;60.60;99866.91;5085794;28;8822;-63
2022/08/22 05:47:11;;;;;;;;;10.00;10.00;;;;;16.58;60.03;99872.03;5075474;28;8941;-62
2022/08/22 05:49:39;;;;;;;;;7.00;7.00;;;;;16.72;59.37;99863.31;5073782;28;8816;-62
2022/08/22 05:52:07;;;;;;;;;10.00;10.00;;;;;16.85;59.47;99866.41;5075197;28;8847;-62
2022/08/22 05:54:35;;;;;;;;;9.00;9.00;;;;;16.93;59.02;99866.44;5073999;28;8840;-63
2022/08/22 05:57:02;;;;;;;;;11.00;9.00;;;;;17.01;59.27;99866.44;5070026;28;8856;-62
2022/08/22 05:59:34;;;;;;;;;10.40;10.00;;;;;17.08;58.97;99866.66;5068925;28;8848;-61
2022/08/22 06:02:02;;;;;;;;;9.00;8.00;;;;;17.14;59.05;99868.66;5068631;28;8982;-62
2022/08/22 06:04:30;;;;;;;;;12.50;10.25;;;;;17.17;59.04;99869.16;5068640;28;8870;-62
2022/08/22 06:06:57;;;;;;;;;10.75;10.50;;;;;17.20;59.57;99876.06;5068668;28;8852;-63
2022/08/22 06:09:25;;;;;;;;;15.50;12.75;;;;;17.21;59.12;99877.75;5069453;28;8925;-62
2022/08/22 06:12:01;;;;;;;;;10.00;10.00;;;;;17.26;59.51;99875.41;5071533;28;8870;-62
2022/08/22 06:14:29;;;;;;;;;6.00;5.00;;;;;17.38;59.59;99863.38;5070796;28;8844;-62
2022/08/22 06:17:00;;;;;;;;;8.75;7.50;;;;;17.48;59.06;99862.16;5071194;28;8844;-62
2022/08/22 06:19:27;;;;;;;;;12.75;12.75;;;;;17.61;58.74;99862.50;5072626;28;8854;-62
2022/08/22 06:21:56;;;;;;;;;11.00;11.00;;;;;17.77;58.57;99862.50;5073719;28;8840;-62
2022/08/22 06:24:25;;;;;;;;;12.40;12.00;;;;;17.89;58.80;99868.38;5072743;28;8843;-63
2022/08/22 06:26:53;;;;;;;;;10.40;9.40;;;;;17.97;58.22;99861.16;5073386;28;8840;-62
2022/08/22 06:29:20;;;;;;;;;12.20;12.00;;;;;18.03;58.56;99868.56;5072170;28;8843;-62
2022/08/22 06:31:48;;;;;;;;;14.20;13.40;;;;;18.14;58.13;99868.19;5072624;28;8868;-62
2022/08/22 06:34:16;;;;;;;;;15.20;15.20;;;;;18.27;58.47;99864.94;5072501;28;8835;-62
2022/08/22 06:36:43;;;;;;;;;14.60;13.00;;;;;18.42;57.88;99860.53;5072360;28;8844;-62
2022/08/22 06:39:11;;;;;;;;;13.40;13.00;;;;;18.52;57.89;99864.72;5073758;28;8835;-62
2022/08/22 06:41:39;;;;;;;;;20.20;19.00;;;;;18.63;58.00;99858.97;5073310;28;8843;-62
2022/08/22 06:44:07;;;;;;;;;13.80;12.40;;;;;18.76;57.85;99861.09;5073257;28;9170;-62
2022/08/22 06:46:35;;;;;;;;;14.80;13.80;;;;;18.91;57.02;99870.97;5074052;28;8847;-62
2022/08/22 06:49:03;;;;;;;;;13.80;13.00;;;;;19.09;56.74;99868.84;5073567;28;8835;-62
2022/08/22 06:51:30;;;;;;;;;17.00;14.20;;;;;19.28;56.24;99863.00;5073135;28;8866;-62
2022/08/22 06:53:58;;;;;;;;;9.40;9.40;;;;;19.46;56.09;99866.28;5073213;28;8824;-62
2022/08/22 06:56:28;;;;;;;;;13.40;12.80;;;;;19.62;56.52;99871.56;5073143;28;8840;-63
2022/08/22 06:58:56;;;;;;;;;11.20;11.20;;;;;19.74;56.31;99864.69;5072538;28;8970;-62
2022/08/22 07:01:24;;;;;;;;;16.20;16.00;;;;;19.87;56.01;99872.19;5072538;28;8917;-63
2022/08/22 07:03:52;;;;;;;;;13.80;13.00;;;;;19.96;56.04;99874.59;5072650;28;8912;-62
2022/08/22 07:06:19;;;;;;;;;13.40;11.80;;;;;20.10;55.40;99871.13;5073554;28;8853;-62
2022/08/22 07:08:49;;;;;;;;;14.20;13.00;;;;;20.24;55.64;99875.72;5072848;28;8840;-62
2022/08/22 07:11:17;;;;;;;;;11.40;11.00;;;;;20.29;55.58;99876.03;5073918;28;8852;-62
2022/08/22 07:13:44;;;;;;;;;12.00;11.80;;;;;20.42;55.00;99878.94;5073548;28;8844;-63
2022/08/22 07:16:12;;;;;;;;;13.40;13.00;;;;;20.57;55.13;99878.91;5073150;28;8867;-62
2022/08/22 07:18:40;;;;;;;;;10.00;10.00;;;;;20.68;54.96;99876.56;5073618;28;8966;-63
2022/08/22 07:21:08;;;;;;;;;11.40;11.00;;;;;20.78;54.58;99875.25;5072810;28;8970;-62
2022/08/22 07:23:36;;;;;;;;;11.80;11.60;;;;;20.85;54.54;99868.06;5073600;28;8848;-63
2022/08/22 07:26:04;;;;;;;;;11.80;11.80;;;;;20.90;54.69;99868.34;5072734;28;8852;-62
2022/08/22 07:28:32;;;;;;;;;10.80;10.80;;;;;20.95;54.75;99867.81;5073477;28;8998;-63
2022/08/22 07:31:17;;;;;;;;;12.00;10.80;;;;;21.07;54.40;99866.28;5072496;28;8842;-63
2022/08/22 07:33:48;;;;;;;;;12.00;11.80;;;;;21.21;54.28;99878.94;5069005;28;8829;-63
2022/08/22 07:36:16;;;;;;;;;13.80;11.40;;;;;21.36;54.29;99867.03;5068235;28;9248;-63
2022/08/22 07:38:44;;;;;;;;;11.00;11.00;;;;;21.51;53.74;99861.53;5066473;28;8946;-63
2022/08/22 07:41:12;;;;;;;;;7.80;7.80;;;;;21.61;53.40;99859.34;5067176;28;8855;-63
2022/08/22 07:43:39;;;;;;;;;11.00;10.60;;;;;21.68;53.49;99866.56;5069650;28;8836;-62
2022/08/22 07:46:07;;;;;;;;;10.00;9.20;;;;;21.83;53.68;99866.47;5071841;28;8824;-62
2022/08/22 07:48:35;;;;;;;;;8.20;8.00;;;;;21.99;52.99;99871.59;5071309;28;8854;-63
2022/08/22 07:51:23;;;;;;;;;9.80;8.60;;;;;22.19;52.96;99868.03;5070857;28;8856;-62
2022/08/22 07:53:51;;;;;;;;;9.40;8.40;;;;;22.36;52.87;99871.25;5072441;28;8856;-62
2022/08/22 07:56:19;;;;;;;;;8.40;8.40;;;;;22.50;52.10;99873.06;5070954;28;8844;-62
2022/08/22 07:58:47;;;;;;;;;7.20;7.20;;;;;22.63;52.53;99873.97;5070955;28;8835;-63
2022/08/22 08:01:15;;;;;;;;;8.00;7.20;;;;;22.79;51.94;99873.66;5069984;28;8962;-63
2022/08/22 08:03:42;;;;;;;;;8.20;8.00;;;;;22.91;51.38;99871.19;5069924;28;8848;-62
2022/08/22 08:06:10;;;;;;;;;6.80;5.80;;;;;23.07;51.75;99868.94;5066919;28;8848;-62
2022/08/22 08:08:39;;;;;;;;;7.60;7.60;;;;;23.27;50.92;99869.03;5069439;28;8858;-63
2022/08/22 08:11:07;;;;;;;;;7.40;6.60;;;;;23.52;50.90;99876.44;5070121;28;8844;-63
2022/08/22 08:13:35;;;;;;;;;10.00;9.00;;;;;23.74;50.58;99861.59;5070268;28;8820;-63
2022/08/22 08:16:03;;;;;;;;;4.20;4.00;;;;;23.93;49.93;99862.69;5070728;28;8860;-63
2022/08/22 08:18:31;;;;;;;;;7.20;6.80;;;;;24.11;49.80;99855.56;5071337;28;8950;-63
2022/08/22 08:20:59;;;;;;;;;8.60;6.80;;;;;24.31;49.59;99861.00;5070257;28;9544;-63
2022/08/22 08:23:27;;;;;;;;;3.20;3.20;;;;;24.47;49.33;99855.09;5070893;28;8921;-63
2022/08/22 08:25:54;;;;;;;;;6.40;6.40;;;;;24.68;48.93;99849.41;5070969;28;8832;-63
2022/08/22 08:28:33;;;;;;;;;6.00;6.00;;;;;24.87;48.84;99851.25;5069824;28;8848;-63
2022/08/22 08:31:01;;;;;;;;;6.00;6.00;;;;;25.04;48.58;99855.16;5069670;28;9211;-63
2022/08/22 08:33:29;;;;;;;;;6.20;6.20;;;;;25.13;48.49;99846.53;5069012;28;8894;-63
2022/08/22 08:35:57;;;;;;;;;6.00;6.00;;;;;25.17;48.46;99846.91;5068360;28;8894;-63
2022/08/22 08:38:30;;;;;;;;;5.00;3.00;;;;;25.15;48.30;99849.00;5069200;28;8824;-63
2022/08/22 08:40:58;;;;;;;;;6.80;5.60;;;;;25.18;48.43;99848.59;5074208;28;9513;-63
2022/08/22 08:43:29;;;;;;;;;3.00;3.00;;;;;25.21;48.32;99837.22;5073994;28;8843;-63
2022/08/22 08:45:58;;;;;;;;;5.00;5.00;;;;;25.21;48.43;99831.78;5073564;28;8836;-63
2022/08/22 08:48:25;;;;;;;;;4.60;3.80;;;;;25.25;48.01;99824.88;5073217;28;8848;-64
2022/08/22 08:50:53;;;;;;;;;5.00;3.00;;;;;25.30;48.34;99836.81;5073781;28;8998;-63
2022/08/22 08:53:23;;;;;;;;;3.00;3.00;;;;;25.39;48.14;99831.94;5072476;28;8921;-63
2022/08/22 08:55:51;;;;;;;;;5.00;5.00;;;;;25.48;48.01;99825.16;5072606;28;8836;-63
2022/08/22 08:58:18;;;;;;;;;3.80;3.80;;;;;25.57;47.81;99821.94;5073308;28;8866;-64
2022/08/22 09:00:46;;;;;;;;;3.00;3.00;;;;;25.67;47.32;99809.47;5074402;28;8844;-63
2022/08/22 09:03:15;;;;;;;;;3.60;3.60;;;;;25.77;46.71;99818.00;5073057;28;8872;-63
2022/08/22 09:05:53;;;;;;;;;5.00;5.00;;;;;25.87;46.91;99806.56;5072283;28;8994;-63
2022/08/22 09:08:21;;;;;;;;;5.00;4.60;;;;;25.99;46.67;99813.00;5074492;28;9166;-63
2022/08/22 09:10:50;;;;;;;;;5.20;5.20;;;;;26.10;47.00;99804.91;5072677;28;8844;-63
2022/08/22 09:13:17;;;;;;;;;4.20;3.40;;;;;26.21;46.20;99797.88;5071362;28;9069;-64
2022/08/22 09:15:46;;;;;;;;;4.20;4.20;;;;;26.30;46.17;99791.06;5072194;28;8875;-64
2022/08/22 09:18:32;;;;;;;;;2.80;2.80;;;;;26.41;46.29;99799.34;5072453;28;8874;-63
2022/08/22 09:21:01;;;;;;;;;4.20;4.00;;;;;26.53;45.56;99792.09;5072091;28;8840;-63
2022/08/22 09:23:29;;;;;;;;;3.00;3.00;;;;;26.65;45.63;99789.44;5072065;28;8831;-63
2022/08/22 09:25:58;;;;;;;;;4.20;4.20;;;;;26.78;45.23;99786.53;5072572;28;8843;-63
2022/08/22 09:28:28;;;;;;;;;5.60;4.80;;;;;26.90;45.32;99785.53;5072709;28;8840;-63
2022/08/22 09:30:55;;;;;;;;;4.80;4.80;;;;;27.02;45.22;99783.66;5072800;28;8855;-63
2022/08/22 09:33:23;;;;;;;;;3.80;3.80;;;;;27.16;44.43;99787.09;5071684;28;8876;-64
2022/08/22 09:35:51;;;;;;;;;6.00;6.00;;;;;27.27;44.45;99781.69;5072798;28;8844;-63
2022/08/22 09:38:20;;;;;;;;;4.00;4.00;;;;;27.41;44.42;99780.41;5071701;28;8844;-63
2022/08/22 09:40:50;;;;;;;;;4.00;4.00;;;;;27.55;44.13;99781.84;5072003;28;8840;-64
2022/08/22 09:43:17;;;;;;;;;3.20;3.00;;;;;27.77;43.62;99774.78;5073469;28;9532;-63
2022/08/22 09:45:49;;;;;;;;;3.40;3.40;;;;;28.10;43.04;99779.69;5072878;28;8909;-64
2022/08/22 09:48:17;;;;;;;;;3.60;3.60;;;;;28.50;42.82;99769.66;5071777;28;8979;-64
2022/08/22 09:50:45;;;;;;;;;3.00;3.00;;;;;28.91;42.42;99767.50;5071962;28;8839;-63
2022/08/22 09:53:13;;;;;;;;;4.00;4.00;;;;;29.25;41.30;99760.22;5072528;28;8848;-63
2022/08/22 09:55:43;;;;;;;;;5.80;5.40;;;;;29.63;40.70;99768.63;5071716;28;8852;-64
2022/08/22 09:58:10;;;;;;;;;4.20;4.00;;;;;30.05;40.13;99767.97;5072464;28;8878;-63
2022/08/22 10:00:42;;;;;;;;;5.00;5.00;;;;;30.56;39.80;99762.13;5072432;28;8835;-63
2022/08/22 10:03:10;;;;;;;;;5.00;5.00;;;;;31.14;38.91;99759.56;5071638;28;8860;-63
2022/08/22 10:05:38;;;;;;;;;5.20;5.00;;;;;31.65;38.81;99758.97;5072608;28;8850;-63
2022/08/22 10:08:11;;;;;;;;;4.20;4.20;;;;;32.15;37.65;99760.22;5072001;28;8828;-63
2022/08/22 10:10:39;;;;;;;;;5.20;5.00;;;;;32.58;37.28;99756.34;5071719;28;8848;-63
2022/08/22 10:13:06;;;;;;;;;5.00;5.00;;;;;32.97;36.75;99757.63;5071802;28;8982;-63
2022/08/22 10:15:37;;;;;;;;;5.40;5.40;;;;;33.10;36.59;99755.22;5071221;28;8908;-63
2022/08/22 10:18:06;;;;;;;;;5.20;5.20;;;;;33.37;35.82;99749.50;5072773;28;8953;-64
2022/08/22 10:20:36;;;;;;;;;5.60;5.60;;;;;33.74;36.06;99739.00;5070881;28;8856;-63
2022/08/22 10:23:04;;;;;;;;;5.40;5.40;;;;;34.00;35.41;99735.13;5071626;28;8876;-63
2022/08/22 10:25:34;;;;;;;;;4.00;4.00;;;;;34.25;35.12;99735.94;5071490;28;9509;-64
2022/08/22 10:28:01;;;;;;;;;5.20;5.00;;;;;34.59;34.67;99734.16;5070172;28;8986;-63
2022/08/22 10:30:30;;;;;;;;;5.40;5.40;;;;;34.91;34.63;99736.56;5068695;28;8867;-63
2022/08/22 10:32:57;;;;;;;;;8.00;6.00;;;;;35.13;34.13;99726.75;5069191;28;8872;-63
2022/08/22 10:35:26;;;;;;;;;7.80;6.20;;;;;35.47;34.35;99724.03;5071649;28;8863;-63
2022/08/22 10:38:00;;;;;;;;;4.80;4.00;;;;;35.78;33.31;99719.94;5071202;28;9632;-64
2022/08/22 10:40:29;;;;;;;;;6.20;6.00;;;;;36.05;33.49;99718.25;5070756;28;8852;-64
2022/08/22 10:42:57;;;;;;;;;5.40;5.40;;;;;36.25;33.15;99724.44;5069982;28;8836;-64
2022/08/22 10:45:26;;;;;;;;;5.40;5.00;;;;;36.47;33.29;99721.97;5069196;28;8832;-64
2022/08/22 10:48:03;;;;;;;;;6.40;5.80;;;;;36.73;32.44;99714.19;5068113;28;8855;-63
2022/08/22 10:50:35;;;;;;;;;5.00;5.00;;;;;36.86;32.72;99719.84;5068405;28;8864;-64
2022/08/22 10:55:56;;;;;;;;;5.20;5.20;;;;;37.32;31.55;99712.50;5068553;28;8879;-64
2022/08/22 10:58:23;;;;;;;;;4.00;4.00;;;;;37.44;31.69;99721.22;5069173;28;8832;-64
2022/08/22 11:00:52;;;;;;;;;6.40;6.00;;;;;37.65;31.72;99711.47;5069433;28;8866;-64
2022/08/22 11:03:23;;;;;;;;;4.00;4.00;;;;;37.77;31.78;99714.56;5070176;28;8872;-64
2022/08/22 11:05:51;;;;;;;;;6.40;6.00;;;;;37.88;30.92;99716.06;5070801;28;8926;-64
2022/08/22 11:08:19;;;;;;;;;6.00;6.00;;;;;37.65;31.86;99711.47;5069514;28;8843;-64
2022/08/22 11:10:47;;;;;;;;;6.00;6.00;;;;;36.31;33.77;99720.50;5070508;28;8844;-63
2022/08/22 11:13:18;;;;;;;;;5.60;5.60;;;;;34.81;35.11;99720.00;5069388;28;8840;-63
2022/08/22 11:15:46;;;;;;;;;6.40;6.40;;;;;34.28;36.54;99713.25;5070254;28;8840;-63
2022/08/22 11:18:14;;;;;;;;;5.40;5.40;;;;;34.46;36.41;99711.81;5069982;28;8928;-63
2022/08/22 11:20:42;;;;;;;;;5.20;5.20;;;;;35.24;34.20;99711.72;5070062;28;8848;-63
2022/08/22 11:23:10;;;;;;;;;5.80;5.80;;;;;35.48;34.42;99706.28;5070376;28;8847;-64
2022/08/22 11:25:42;;;;;;;;;6.00;5.60;;;;;36.15;33.08;99700.72;5069972;28;9260;-64
2022/08/22 11:28:10;;;;;;;;;5.40;5.00;;;;;36.53;32.23;99701.38;5070430;28;9005;-63
2022/08/22 11:30:37;;;;;;;;;6.00;6.00;;;;;35.70;33.92;99703.91;5070617;28;8864;-64
2022/08/22 11:33:11;;;;;;;;;6.60;6.60;;;;;34.45;35.96;99719.31;5070813;28;8982;-64
2022/08/22 11:35:40;;;;;;;;;8.00;8.00;;;;;33.34;37.33;99703.06;5070398;28;9632;-63
2022/08/22 11:38:08;;;;;;;;;4.80;4.80;;;;;32.46;38.28;99709.69;5071093;28;8844;-63
2022/08/22 11:40:37;;;;;;;;;6.20;6.20;;;;;32.03;39.25;99709.97;5071432;28;8848;-64
2022/08/22 11:43:05;;;;;;;;;6.00;6.00;;;;;31.57;39.66;99709.88;5070512;28;8900;-64
2022/08/22 11:45:44;;;;;;;;;6.20;6.20;;;;;31.17;40.41;99704.84;5070011;28;8862;-63
2022/08/22 11:48:13;;;;;;;;;6.00;6.00;;;;;31.29;40.05;99708.28;5068942;28;9498;-63
2022/08/22 11:50:41;;;;;;;;;7.00;6.40;;;;;31.36;39.63;99705.28;5070701;28;8860;-64